Port Nolloth, South Africa
Current Conditions -  °F | °C
As of 8:00 PM on Thursday 29 Jan 2015 (Local Time) from FAUP Reporting Station
Thunderstorm Thunderstorm  
Wind Chill: 77°   Ceiling: Unl
Heat Index: 79°   Visibility: 6mi
Dew Point: 55°   Wind: 10mph
Humidity: 47%   Direction: 170°S
Pressure: 29.91"   Gusts: NA
Location:  29.24°S, 16.88°E
Report Text: FAUP 291800Z 17009KT 9999 TS SCT050 FEW060CB 25/13 Q1013 RETS NOSIG
Loading
Personal Weather Stations






























Interactive Weather Map New forecast layout! Learn more

10-Day Weather Forecast

Advertisements
Track Severe Weather on mobile